岡山グライダークラブ活動状況掲示板あなたは無料カウンター人目の訪問者です

岡山グライダークラブ
岡山市浦安南町639-1 岡南飛行場
 使用機:シャイベ式 SF25C型 ファルケ   JA2330
      ヴァレンティン式17E型 タイフーン  JA2342
 練習日:毎日曜日  クラブルーム:電話 086-265-1810
この掲示板は岡山グライダークラブの活動状況をお知らせする掲示板です。
!!!この掲示板は投稿規制をしています。!!!
クラブ関連各種情報は 岡山グライダークラブクラブルーム      を       .
  ブリーフイング情報は  岡山グライダークラブブリーフィングルーム  をご覧下さい。 .
※写真はクリックすると拡大して見ることが出来ます。
岡南飛行場へのアクセス等は 岡南飛行場管理事務所 をご覧ください。
クラブの ホームページ ができました。

 
02月16日
by OGC at 2020/2/16(日) 16:32:22 No.20200216163022  削除コメント
1024 x 768 x 83,358バイト
No.1

02月16日
本日の参加者
  会員      10名
  その他      0名


@本日の様子


METAR
RJBK 160000Z CALM 2500 BR FEW004ST SCT010CU BKN015CU 10/10 Q1008 A2978
RJOB 160000Z VRB02KT 0200 R07///// -SHRA FG VV002 09/09 Q1008
RJOT 160000Z 04003KT 350V090 0500 R26/0750VP2000U -SHRA FG FEW000 SCT001 BKN002 10/10 Q1007
RJOA 160000Z 10004KT 060V130 2500 BCFG BR FEW000 SCT003 BKN004 09/07 Q1007
TAF
RJOB 160017Z 1600/1706 20005KT 2000 -SHRA BR BCFG FEW000 SCT001 BKN005
     TEMPO 1600/1602 0300 -SHRA FG VV001
     TEMPO 1602/1605 0700 -SHRA FG
     BECMG 1605/1607 27012KT 9999 NSW FEW020 SCT035
     TEMPO 1703/1706 26016G26KT
RJOT 152317Z 1600/1706 24007KT 4000 -SHRA BR FEW003 BKN008 BKN015
     TEMPO 1600/1603 1500 -SHRA BR FEW001 SCT003 BKN005
     BECMG 1603/1605 26020KT 9999 NSW FEW020 BKN035
     TEMPO 1605/1612 25025G35KT
     TEMPO 1700/1706 26022G32KT
RJOA 152309Z 1600/1706 26010KT 2000 -SHRA BR BCFG FEW000 SCT003 BKN008
     TEMPO 1600/1604 0500 -SHRA FG FEW000 SCT001 BKN003
     BECMG 1604/1606 9999 NSW FEW015 BKN025
     TEMPO 1703/1706 27015G25KT

本日は、靄(BR)に覆われ視程が悪く、雨も降ったり止んだりの状態が16時ごろまで続くため、
雨の日、恒例のうどんを食べて解散となりました。

解散    13:00

本日はフライトはありません。


    << 戻る || ホームページ || 最新の掲示板へ